Time;durP1;ratioP1;P1;durP2;ratioP2;P2;SDS_P1;SDS_P2;PMS_P1;PMS_P2;Temp;Humidity;BMP_temperature;BMP_pressure;BME280_temperature;BME280_humidity;BME280_pressure;Samples;Min_cycle;Max_cycle;Signal;HPM_P1;HPM_P2
2021/12/23 00:01:53;;;;;;;0.47;0.47;;;-1.50;99.90;;;;;;4445314;32;20505;-67
2021/12/23 00:04:19;;;;;;;0.82;0.82;;;-1.50;99.90;;;;;;4444089;32;20415;-69
2021/12/23 00:06:44;;;;;;;0.80;0.80;;;-1.50;99.90;;;;;;4444382;32;20057;-69
2021/12/23 00:09:10;;;;;;;0.95;0.95;;;-1.50;99.90;;;;;;4445629;32;20101;-69
2021/12/23 00:11:37;;;;;;;1.45;1.35;;;-1.50;99.90;;;;;;4444006;32;20061;-68
2021/12/23 00:14:06;;;;;;;0.98;0.93;;;-1.50;99.90;;;;;;4444191;32;20423;-69
2021/12/23 00:19:33;;;;;;;0.77;0.77;;;-1.40;99.90;;;;;;4443596;32;20128;-68
2021/12/23 00:23:31;;;;;;;0.95;0.95;;;-1.50;99.90;;;;;;4444633;32;20080;-68
2021/12/23 00:24:45;;;;;;;0.70;0.70;;;-1.40;99.90;;;;;;4417334;32;20125;-68
2021/12/23 00:27:11;;;;;;;0.60;0.60;;;-1.50;99.90;;;;;;4442613;32;20078;-68
2021/12/23 00:29:38;;;;;;;0.82;0.82;;;-1.60;99.90;;;;;;4439510;32;20406;-68
2021/12/23 00:32:07;;;;;;;0.40;0.40;;;-1.40;99.90;;;;;;4438330;32;20077;-69
2021/12/23 00:34:33;;;;;;;0.98;0.98;;;-1.50;99.90;;;;;;4443487;32;20069;-68
2021/12/23 00:37:00;;;;;;;0.73;0.73;;;-1.60;99.90;;;;;;4444480;32;20061;-68
2021/12/23 00:39:26;;;;;;;0.80;0.80;;;-1.60;99.90;;;;;;4431392;32;20415;-68
2021/12/23 00:41:52;;;;;;;1.37;1.08;;;-1.60;99.90;;;;;;4428713;32;20061;-68
2021/12/23 00:44:18;;;;;;;0.50;0.50;;;-1.70;99.90;;;;;;4438288;32;20064;-68
2021/12/23 00:46:44;;;;;;;0.60;0.60;;;-1.60;99.90;;;;;;4443759;32;20134;-69
2021/12/23 00:49:09;;;;;;;1.20;1.12;;;-1.70;99.90;;;;;;4443728;32;20140;-69
2021/12/23 00:51:35;;;;;;;0.57;0.57;;;-1.70;99.90;;;;;;4442851;32;20080;-68
2021/12/23 00:54:04;;;;;;;1.45;1.35;;;-1.80;99.90;;;;;;4444188;32;20068;-68
2021/12/23 00:56:33;;;;;;;0.77;0.77;;;-1.80;99.90;;;;;;4444738;32;20446;-69
2021/12/23 00:58:59;;;;;;;0.88;0.88;;;-1.70;99.90;;;;;;4442892;32;20426;-68
2021/12/23 01:01:24;;;;;;;0.50;0.50;;;-1.70;99.90;;;;;;4442747;32;20076;-68
2021/12/23 01:03:50;;;;;;;2.45;1.85;;;-1.80;99.90;;;;;;4443734;32;20538;-68
2021/12/23 01:06:15;;;;;;;0.90;0.90;;;-1.80;99.90;;;;;;4443780;32;20078;-69
2021/12/23 01:08:41;;;;;;;1.80;1.70;;;-1.80;99.90;;;;;;4444207;32;20525;-68
2021/12/23 01:11:08;;;;;;;0.88;0.88;;;-1.80;99.90;;;;;;4443151;32;20057;-68
2021/12/23 01:13:33;;;;;;;1.98;1.45;;;-1.80;99.90;;;;;;4442756;32;20088;-68
2021/12/23 01:18:31;;;;;;;0.77;0.77;;;-1.80;99.90;;;;;;4442636;32;20057;-69
2021/12/23 01:21:29;;;;;;;0.50;0.50;;;-1.80;99.90;;;;;;4433557;32;20084;-67
2021/12/23 01:23:50;;;;;;;3.65;1.95;;;-1.80;99.90;;;;;;4431983;32;20072;-68
2021/12/23 01:26:19;;;;;;;1.37;1.33;;;-1.90;99.90;;;;;;4443137;32;20084;-69
2021/12/23 01:28:47;;;;;;;0.90;0.90;;;-1.90;99.90;;;;;;4444772;32;20084;-68
2021/12/23 01:31:12;;;;;;;1.75;1.37;;;-1.80;99.90;;;;;;4429200;32;20571;-67
2021/12/23 01:33:38;;;;;;;0.40;0.40;;;-1.90;99.90;;;;;;4436398;32;20081;-68
2021/12/23 01:36:04;;;;;;;1.23;1.12;;;-1.90;99.90;;;;;;4445051;32;20061;-68
2021/12/23 01:38:29;;;;;;;0.52;0.52;;;-1.90;99.90;;;;;;4441612;32;20078;-68
2021/12/23 01:40:55;;;;;;;0.60;0.60;;;-1.90;99.90;;;;;;4430792;32;20105;-68
2021/12/23 01:43:20;;;;;;;1.30;1.25;;;-1.80;99.90;;;;;;4442780;32;20081;-67
2021/12/23 01:45:48;;;;;;;0.70;0.68;;;-1.90;99.90;;;;;;4445583;32;20552;-68
2021/12/23 01:48:14;;;;;;;1.23;1.05;;;-1.90;99.90;;;;;;4446069;32;20064;-68
2021/12/23 01:50:40;;;;;;;0.77;0.77;;;-2.00;99.90;;;;;;4445627;32;20069;-68
2021/12/23 01:53:07;;;;;;;2.58;1.10;;;-2.00;99.90;;;;;;4447475;32;20116;-68
2021/12/23 01:55:35;;;;;;;0.50;0.50;;;-1.90;99.90;;;;;;4446310;32;20073;-68
2021/12/23 01:58:01;;;;;;;0.40;0.40;;;-1.90;99.90;;;;;;4446008;32;20530;-68
2021/12/23 02:00:30;;;;;;;1.15;1.05;;;-1.90;99.90;;;;;;4445636;32;20065;-69
2021/12/23 02:02:57;;;;;;;0.57;0.57;;;-1.90;99.90;;;;;;4431893;32;20126;-69
2021/12/23 02:05:23;;;;;;;0.77;0.77;;;-1.90;99.90;;;;;;4445697;32;20056;-68
2021/12/23 02:07:49;;;;;;;1.12;1.08;;;-1.90;99.90;;;;;;4445862;32;20569;-69
2021/12/23 02:10:15;;;;;;;1.83;1.60;;;-1.90;99.90;;;;;;4431542;32;20073;-68
2021/12/23 02:12:44;;;;;;;0.40;0.40;;;-2.00;99.90;;;;;;4445427;32;20084;-68
2021/12/23 02:15:10;;;;;;;2.28;1.05;;;-2.00;99.90;;;;;;4445697;32;20061;-69
2021/12/23 02:17:36;;;;;;;1.95;1.70;;;-2.00;99.90;;;;;;4435000;32;20094;-68
2021/12/23 02:20:04;;;;;;;0.80;0.80;;;-2.00;99.90;;;;;;4445788;32;20073;-68
2021/12/23 02:22:29;;;;;;;0.60;0.60;;;-2.00;99.90;;;;;;4445105;32;20120;-68
2021/12/23 02:24:55;;;;;;;1.58;1.25;;;-2.00;99.90;;;;;;4446404;32;20061;-68
2021/12/23 02:27:20;;;;;;;0.37;0.37;;;-2.10;99.90;;;;;;4445776;32;20392;-68
2021/12/23 02:29:46;;;;;;;0.50;0.50;;;-2.00;99.90;;;;;;4445623;32;20513;-68
2021/12/23 02:32:11;;;;;;;0.50;0.50;;;-2.00;99.90;;;;;;4443918;32;20114;-69
2021/12/23 02:34:37;;;;;;;1.00;0.90;;;-1.90;99.90;;;;;;4445714;32;20053;-68
2021/12/23 02:37:03;;;;;;;0.98;0.85;;;-1.90;99.90;;;;;;4445208;32;20077;-68
2021/12/23 02:39:29;;;;;;;0.70;0.70;;;-1.90;99.90;;;;;;4422385;32;20074;-68
2021/12/23 02:41:55;;;;;;;0.70;0.70;;;-1.90;99.90;;;;;;4438027;32;20069;-68
2021/12/23 02:44:21;;;;;;;2.33;1.85;;;-1.90;99.90;;;;;;4445051;32;20100;-68
2021/12/23 02:46:47;;;;;;;1.00;1.00;;;-1.90;99.90;;;;;;4445186;32;20520;-68
2021/12/23 02:49:13;;;;;;;1.90;1.52;;;-2.00;99.90;;;;;;4445242;32;20501;-69
2021/12/23 02:51:40;;;;;;;0.73;0.73;;;-2.00;99.90;;;;;;4444667;32;20097;-68
2021/12/23 02:54:05;;;;;;;0.55;0.55;;;-2.00;99.90;;;;;;4445385;32;20072;-69
2021/12/23 02:56:32;;;;;;;3.10;1.37;;;-2.00;99.90;;;;;;4431200;32;20438;-69
2021/12/23 02:58:58;;;;;;;1.10;1.10;;;-2.00;99.90;;;;;;4445187;32;20127;-68
2021/12/23 03:01:24;;;;;;;0.88;0.73;;;-2.00;99.90;;;;;;4445382;32;20521;-68
2021/12/23 03:03:49;;;;;;;0.65;0.65;;;-1.90;99.90;;;;;;4445716;32;20077;-68
2021/12/23 03:06:18;;;;;;;1.37;1.27;;;-2.00;99.90;;;;;;4431616;32;20541;-68
2021/12/23 03:08:47;;;;;;;0.50;0.50;;;-1.90;99.90;;;;;;4445541;32;20169;-68
2021/12/23 03:11:16;;;;;;;0.82;0.82;;;-2.00;99.90;;;;;;4445795;32;20084;-68
2021/12/23 03:13:42;;;;;;;0.45;0.45;;;-2.00;99.90;;;;;;4446203;32;20064;-67
2021/12/23 03:16:08;;;;;;;2.28;1.33;;;-2.00;99.90;;;;;;4446047;32;20077;-68
2021/12/23 03:18:35;;;;;;;0.50;0.50;;;-2.00;99.90;;;;;;4444704;32;20634;-68
2021/12/23 03:21:01;;;;;;;0.50;0.50;;;-2.00;99.90;;;;;;4444979;32;20060;-68
2021/12/23 03:23:27;;;;;;;1.75;1.12;;;-1.90;99.90;;;;;;4445330;32;20185;-68
2021/12/23 03:25:53;;;;;;;1.05;1.05;;;-1.80;99.90;;;;;;4445028;32;20569;-68
2021/12/23 03:28:19;;;;;;;0.50;0.50;;;-1.80;99.90;;;;;;4430805;32;20525;-68
2021/12/23 03:30:45;;;;;;;2.55;1.30;;;-1.80;99.90;;;;;;4438040;32;20254;-69
2021/12/23 03:33:12;;;;;;;0.50;0.50;;;-1.80;99.90;;;;;;4443828;32;20065;-68
2021/12/23 03:35:38;;;;;;;0.70;0.70;;;-1.80;99.90;;;;;;4444738;32;20077;-69
2021/12/23 03:38:05;;;;;;;0.60;0.60;;;-1.90;99.90;;;;;;4445039;32;20107;-68
2021/12/23 03:40:30;;;;;;;1.30;0.80;;;-1.90;99.90;;;;;;4428622;32;20077;-68
2021/12/23 03:42:56;;;;;;;2.10;1.45;;;-1.90;99.90;;;;;;4443797;32;20513;-68
2021/12/23 03:45:22;;;;;;;0.90;0.90;;;-1.80;99.90;;;;;;4444313;32;20072;-68
2021/12/23 03:47:48;;;;;;;0.70;0.70;;;-1.80;99.90;;;;;;4444212;32;20060;-68
2021/12/23 03:50:17;;;;;;;0.90;0.90;;;-1.80;99.90;;;;;;4444760;32;20081;-68
2021/12/23 03:52:43;;;;;;;3.30;0.88;;;-1.70;99.90;;;;;;4444183;32;20545;-68
2021/12/23 03:55:10;;;;;;;0.80;0.80;;;-1.70;99.90;;;;;;4445029;32;20098;-68
2021/12/23 03:57:35;;;;;;;0.52;0.52;;;-1.80;99.90;;;;;;4444100;32;20094;-69
2021/12/23 04:00:02;;;;;;;0.77;0.77;;;-1.80;99.90;;;;;;4443401;32;20068;-68
2021/12/23 04:02:28;;;;;;;4.78;2.05;;;-1.90;99.90;;;;;;4443702;32;20516;-68
2021/12/23 04:04:53;;;;;;;0.75;0.75;;;-2.00;99.90;;;;;;4445025;32;20072;-68
2021/12/23 04:07:18;;;;;;;0.60;0.60;;;-2.00;99.90;;;;;;4444359;32;20471;-68
2021/12/23 04:09:44;;;;;;;1.10;0.95;;;-2.00;99.90;;;;;;4445545;32;20068;-68
2021/12/23 04:12:10;;;;;;;4.68;2.70;;;-2.00;99.90;;;;;;4443265;32;20077;-68
2021/12/23 04:14:35;;;;;;;0.60;0.60;;;-1.90;99.90;;;;;;4443930;32;20524;-68
2021/12/23 04:17:01;;;;;;;1.12;1.10;;;-2.00;99.90;;;;;;4443163;32;20529;-68
2021/12/23 04:19:31;;;;;;;0.98;0.98;;;-1.90;99.90;;;;;;4444001;32;20438;-68
2021/12/23 04:21:57;;;;;;;1.00;1.00;;;-1.90;99.90;;;;;;4443519;32;20072;-68
2021/12/23 04:24:23;;;;;;;0.70;0.57;;;-1.90;99.90;;;;;;4444298;32;20145;-68
2021/12/23 04:26:48;;;;;;;1.10;1.02;;;-1.90;99.90;;;;;;4445155;32;20118;-68
2021/12/23 04:29:14;;;;;;;0.85;0.85;;;-1.80;99.90;;;;;;4442919;32;20081;-68
2021/12/23 04:31:39;;;;;;;0.50;0.50;;;-1.90;99.90;;;;;;4443735;32;20080;-68
2021/12/23 04:34:05;;;;;;;1.42;1.33;;;-1.90;99.90;;;;;;4440898;32;91567;-68
2021/12/23 04:36:30;;;;;;;0.68;0.68;;;-1.90;99.90;;;;;;4440831;32;20053;-67
2021/12/23 04:38:58;;;;;;;0.80;0.80;;;-1.80;99.90;;;;;;4442133;32;20049;-68
2021/12/23 04:41:24;;;;;;;0.82;0.82;;;-1.80;99.90;;;;;;4442086;32;20422;-68
2021/12/23 04:43:50;;;;;;;2.17;1.75;;;-1.70;99.90;;;;;;4444981;32;20068;-67
2021/12/23 04:46:16;;;;;;;0.75;0.73;;;-1.80;99.90;;;;;;4444418;32;20053;-67
2021/12/23 04:48:44;;;;;;;0.60;0.60;;;-1.70;99.90;;;;;;4444439;32;20049;-68
2021/12/23 04:51:12;;;;;;;1.33;1.23;;;-1.70;99.90;;;;;;4445307;32;20056;-68
2021/12/23 04:53:37;;;;;;;0.85;0.85;;;-1.70;99.90;;;;;;4444318;32;20085;-68
2021/12/23 04:56:03;;;;;;;1.77;1.48;;;-1.70;99.90;;;;;;4445096;32;20072;-68
2021/12/23 04:58:29;;;;;;;1.20;1.17;;;-1.70;99.90;;;;;;4444514;32;20089;-68
2021/12/23 05:00:54;;;;;;;1.73;1.37;;;-1.80;99.90;;;;;;4428678;32;20390;-69
2021/12/23 05:03:22;;;;;;;0.80;0.80;;;-1.80;99.90;;;;;;4443141;32;20081;-68
2021/12/23 05:05:48;;;;;;;0.93;0.93;;;-1.60;99.90;;;;;;4443474;32;20127;-69
2021/12/23 05:08:14;;;;;;;0.70;0.70;;;-1.60;99.90;;;;;;4443440;32;20098;-68
2021/12/23 05:10:41;;;;;;;1.05;1.05;;;-1.60;99.90;;;;;;4443643;32;20595;-68
2021/12/23 05:13:07;;;;;;;0.95;0.95;;;-1.50;99.90;;;;;;4444217;32;20065;-68
2021/12/23 05:15:32;;;;;;;2.47;1.17;;;-1.50;99.90;;;;;;4445151;32;20065;-68
2021/12/23 05:17:58;;;;;;;0.60;0.60;;;-1.40;99.90;;;;;;4444167;32;20529;-68
2021/12/23 05:20:26;;;;;;;0.73;0.73;;;-1.40;99.90;;;;;;4445752;32;20074;-68
2021/12/23 05:22:52;;;;;;;4.22;1.95;;;-1.40;99.90;;;;;;4447254;32;20562;-68
2021/12/23 05:25:18;;;;;;;2.40;1.65;;;-1.40;99.90;;;;;;4446313;32;20081;-68
2021/12/23 05:27:44;;;;;;;1.25;1.20;;;-1.40;99.90;;;;;;4446519;32;20081;-68
2021/12/23 05:30:13;;;;;;;1.87;1.48;;;-1.30;99.90;;;;;;4445885;32;20493;-68
2021/12/23 05:32:41;;;;;;;2.37;2.10;;;-1.30;99.90;;;;;;4445201;32;20120;-68
2021/12/23 05:35:07;;;;;;;8.50;1.48;;;-1.40;99.90;;;;;;4445936;32;20053;-67
2021/12/23 05:37:32;;;;;;;0.60;0.60;;;-1.40;99.90;;;;;;4441448;32;20077;-68
2021/12/23 05:39:58;;;;;;;0.60;0.60;;;-1.40;99.90;;;;;;4441364;32;20094;-68
2021/12/23 05:42:23;;;;;;;2.00;1.40;;;-1.50;99.90;;;;;;4445861;32;20053;-67
2021/12/23 05:44:49;;;;;;;2.30;1.50;;;-1.50;99.90;;;;;;4446407;32;20081;-68
2021/12/23 05:47:14;;;;;;;1.20;1.15;;;-1.40;99.90;;;;;;4458661;32;20564;-68
2021/12/23 05:49:40;;;;;;;1.10;1.00;;;-1.40;99.90;;;;;;4457633;32;20159;-69
2021/12/23 05:52:07;;;;;;;1.25;1.17;;;-1.50;99.90;;;;;;4450420;32;20116;-68
2021/12/23 05:54:33;;;;;;;0.93;0.93;;;-1.50;99.90;;;;;;4446704;32;20133;-69
2021/12/23 05:57:02;;;;;;;0.75;0.75;;;-1.50;99.90;;;;;;4446599;32;20483;-68
2021/12/23 05:59:29;;;;;;;1.27;1.00;;;-1.50;99.90;;;;;;4441236;32;20073;-68
2021/12/23 06:01:55;;;;;;;0.65;0.65;;;-1.40;99.90;;;;;;4441598;32;20193;-68
2021/12/23 06:04:20;;;;;;;1.92;1.65;;;-1.50;99.90;;;;;;4445260;32;20578;-68
2021/12/23 06:06:46;;;;;;;1.05;0.93;;;-1.50;99.90;;;;;;4445670;32;20057;-68
2021/12/23 06:09:11;;;;;;;0.60;0.60;;;-1.50;99.90;;;;;;4445274;32;20085;-69
2021/12/23 06:11:37;;;;;;;0.93;0.93;;;-1.40;99.90;;;;;;4444431;32;20073;-68
2021/12/23 06:14:02;;;;;;;0.55;0.55;;;-1.50;99.90;;;;;;4436491;32;20080;-68
2021/12/23 06:16:28;;;;;;;1.37;1.27;;;-1.50;99.90;;;;;;4455685;32;20060;-68
2021/12/23 06:18:53;;;;;;;0.88;0.88;;;-1.40;99.90;;;;;;4439212;32;20082;-68
2021/12/23 06:21:20;;;;;;;10.38;1.73;;;-1.40;99.90;;;;;;4435826;32;20085;-68
2021/12/23 06:23:45;;;;;;;1.05;1.02;;;-1.40;99.90;;;;;;4446123;32;20089;-68
2021/12/23 06:26:12;;;;;;;0.82;0.82;;;-1.40;99.90;;;;;;4446268;32;20427;-68
2021/12/23 06:28:37;;;;;;;3.85;2.65;;;-1.30;99.90;;;;;;4447828;32;20077;-68
2021/12/23 06:31:04;;;;;;;2.95;1.30;;;-1.20;99.90;;;;;;4442782;32;20521;-68
2021/12/23 06:33:29;;;;;;;0.73;0.73;;;-1.30;99.90;;;;;;4445594;32;20069;-68
2021/12/23 06:35:55;;;;;;;1.87;1.17;;;-1.20;99.90;;;;;;4449676;32;20106;-68
2021/12/23 06:38:20;;;;;;;19.58;1.98;;;-1.40;99.90;;;;;;4449872;32;20463;-69
2021/12/23 06:40:46;;;;;;;0.65;0.65;;;-1.40;99.90;;;;;;4450447;32;20127;-68
2021/12/23 06:43:11;;;;;;;1.33;1.23;;;-1.40;99.90;;;;;;4444921;32;20056;-68
2021/12/23 06:45:37;;;;;;;2.33;1.17;;;-1.40;99.90;;;;;;4436203;32;20077;-68
2021/12/23 06:48:02;;;;;;;12.77;1.95;;;-1.30;99.90;;;;;;4459105;32;20061;-68
2021/12/23 06:50:28;;;;;;;1.42;1.33;;;-1.20;99.90;;;;;;4453640;32;20065;-69
2021/12/23 06:52:55;;;;;;;0.45;0.45;;;-1.20;99.90;;;;;;4445233;32;20300;-68
2021/12/23 06:55:20;;;;;;;0.50;0.50;;;-1.30;99.90;;;;;;4453153;32;20434;-69
2021/12/23 06:57:48;;;;;;;0.68;0.68;;;-1.30;99.90;;;;;;4454890;32;20112;-68
2021/12/23 07:00:16;;;;;;;0.85;0.70;;;-1.30;99.90;;;;;;4445226;32;20515;-68
2021/12/23 07:02:42;;;;;;;0.80;0.80;;;-1.30;99.90;;;;;;4445577;32;20536;-68
2021/12/23 07:05:09;;;;;;;1.40;1.30;;;-1.10;99.90;;;;;;4447411;32;20052;-69
2021/12/23 07:07:42;;;;;;;1.08;1.02;;;-1.10;99.90;;;;;;4457649;32;20069;-68
2021/12/23 07:10:09;;;;;;;1.33;1.23;;;-1.00;99.90;;;;;;4454168;32;20545;-68
2021/12/23 07:12:35;;;;;;;0.50;0.50;;;-1.00;99.90;;;;;;4446421;32;20085;-69
2021/12/23 07:15:00;;;;;;;0.65;0.65;;;-1.00;99.90;;;;;;4448150;32;20143;-69
2021/12/23 07:17:26;;;;;;;0.60;0.60;;;-1.00;99.90;;;;;;4459485;32;20061;-67
2021/12/23 07:19:51;;;;;;;1.25;1.15;;;-0.90;99.90;;;;;;4460637;32;20491;-69
2021/12/23 07:22:17;;;;;;;0.77;0.77;;;-0.80;99.90;;;;;;4448577;32;20124;-69
2021/12/23 07:24:43;;;;;;;1.45;1.35;;;-1.00;99.90;;;;;;4444997;32;20097;-69
2021/12/23 07:27:09;;;;;;;0.70;0.70;;;-1.10;99.90;;;;;;4457508;32;20058;-69
2021/12/23 07:29:35;;;;;;;2.83;1.50;;;-1.00;99.90;;;;;;4446129;32;20063;-68
2021/12/23 07:32:03;;;;;;;1.27;1.17;;;-1.00;99.90;;;;;;4451980;32;20061;-68
2021/12/23 07:34:29;;;;;;;2.00;1.75;;;-1.00;99.90;;;;;;4445399;32;20453;-68
2021/12/23 07:36:55;;;;;;;0.70;0.70;;;-1.00;99.90;;;;;;4453073;32;20078;-68
2021/12/23 07:39:20;;;;;;;0.60;0.60;;;-1.00;99.90;;;;;;4442188;32;20058;-68
2021/12/23 07:41:46;;;;;;;2.33;1.90;;;-1.10;99.90;;;;;;4445008;32;20126;-68
2021/12/23 07:44:20;;;;;;;0.85;0.85;;;-1.00;99.90;;;;;;4445388;32;20513;-68
2021/12/23 07:46:47;;;;;;;0.73;0.73;;;-1.10;99.90;;;;;;4455961;32;20065;-68
2021/12/23 07:49:13;;;;;;;5.22;1.52;;;-1.10;99.90;;;;;;4446521;32;20065;-68
2021/12/23 07:51:39;;;;;;;0.50;0.50;;;-1.00;99.90;;;;;;4449764;32;20068;-68
2021/12/23 07:54:04;;;;;;;0.60;0.60;;;-1.00;99.90;;;;;;4447950;32;20053;-68
2021/12/23 07:56:30;;;;;;;0.93;0.93;;;-1.10;99.90;;;;;;4445392;32;20116;-68
2021/12/23 07:58:56;;;;;;;1.60;1.50;;;-1.20;99.90;;;;;;4456793;32;20070;-68
2021/12/23 08:01:21;;;;;;;1.23;1.15;;;-1.10;99.90;;;;;;4445543;32;20061;-68
2021/12/23 08:03:47;;;;;;;0.50;0.50;;;-1.00;99.90;;;;;;4454859;32;20096;-68
2021/12/23 08:06:12;;;;;;;1.40;1.30;;;-0.90;99.90;;;;;;4437165;32;20073;-67
2021/12/23 08:08:38;;;;;;;0.88;0.88;;;-0.90;99.90;;;;;;4429052;32;20119;-68
2021/12/23 08:11:06;;;;;;;1.98;1.55;;;-0.90;99.90;;;;;;4445201;32;20065;-68
2021/12/23 08:13:31;;;;;;;1.27;1.20;;;-0.90;99.90;;;;;;4444517;32;20551;-68
2021/12/23 08:15:58;;;;;;;1.83;1.23;;;-1.00;99.90;;;;;;4444709;32;20072;-68
2021/12/23 08:18:23;;;;;;;2.58;1.75;;;-1.00;99.90;;;;;;4444037;32;20089;-68
2021/12/23 08:20:49;;;;;;;1.02;1.02;;;-0.90;99.90;;;;;;4445407;32;20080;-68
2021/12/23 08:23:14;;;;;;;7.47;1.52;;;-0.80;99.90;;;;;;4448307;32;20077;-67
2021/12/23 08:25:40;;;;;;;1.15;0.95;;;-0.80;99.90;;;;;;4444230;32;20073;-67
2021/12/23 08:28:05;;;;;;;0.60;0.60;;;-0.90;99.90;;;;;;4455205;32;20117;-67
2021/12/23 08:30:32;;;;;;;0.70;0.70;;;-0.90;99.90;;;;;;4446698;32;20427;-67
2021/12/23 08:32:59;;;;;;;0.75;0.75;;;-0.80;99.90;;;;;;4439572;32;20529;-68
2021/12/23 08:35:24;;;;;;;0.52;0.52;;;-0.70;99.90;;;;;;4447107;32;20120;-68
2021/12/23 08:37:50;;;;;;;1.55;1.45;;;-0.70;99.90;;;;;;4444008;32;20086;-67
2021/12/23 08:40:19;;;;;;;1.37;1.20;;;-0.60;99.90;;;;;;4446142;32;20093;-67
2021/12/23 08:42:47;;;;;;;1.95;1.77;;;-0.60;99.90;;;;;;4456923;32;20111;-67
2021/12/23 08:45:12;;;;;;;1.45;1.02;;;-0.60;99.90;;;;;;4445716;32;20081;-67
2021/12/23 08:47:38;;;;;;;1.75;1.65;;;-0.60;99.90;;;;;;4448450;32;20078;-68
2021/12/23 08:50:07;;;;;;;1.40;1.30;;;-0.60;99.90;;;;;;4443538;32;20102;-67
2021/12/23 08:52:33;;;;;;;1.48;0.85;;;-0.60;99.90;;;;;;4448440;32;20541;-68
2021/12/23 08:54:59;;;;;;;0.50;0.50;;;-0.50;99.90;;;;;;4443111;32;20173;-68
2021/12/23 08:57:24;;;;;;;1.05;1.05;;;-0.50;99.90;;;;;;4444081;32;20056;-68
2021/12/23 08:59:50;;;;;;;0.65;0.65;;;-0.50;99.90;;;;;;4447577;32;20067;-68
2021/12/23 09:02:15;;;;;;;1.23;0.93;;;-0.50;99.90;;;;;;4447380;32;20593;-68
2021/12/23 09:04:41;;;;;;;5.15;1.62;;;-0.50;99.90;;;;;;4448963;32;20065;-68
2021/12/23 09:07:08;;;;;;;2.05;1.75;;;-0.50;99.90;;;;;;4455121;32;20082;-68
2021/12/23 09:09:35;;;;;;;1.33;1.23;;;-0.50;99.90;;;;;;4444082;32;20061;-69
2021/12/23 09:12:02;;;;;;;0.70;0.70;;;-0.40;99.90;;;;;;4446710;32;20077;-68
2021/12/23 09:14:28;;;;;;;0.70;0.70;;;-0.40;99.90;;;;;;4443293;32;20089;-68
2021/12/23 09:16:54;;;;;;;0.65;0.65;;;-0.50;99.90;;;;;;4443871;32;20057;-68
2021/12/23 09:19:19;;;;;;;0.60;0.60;;;-0.50;99.90;;;;;;4444972;32;20180;-68
2021/12/23 09:21:45;;;;;;;0.73;0.73;;;-0.50;99.90;;;;;;4453188;32;20123;-68
2021/12/23 09:24:11;;;;;;;0.60;0.60;;;-0.40;99.90;;;;;;4453647;32;20077;-68
2021/12/23 09:26:47;;;;;;;14.38;2.12;;;-0.30;99.90;;;;;;4456961;32;20123;-68
2021/12/23 09:32:38;;;;;;;1.30;1.25;;;-0.40;99.90;;;;;;4442419;32;20088;-68
2021/12/23 09:33:02;;;;;;;1.87;1.23;;;-0.40;99.90;;;;;;4427658;32;20085;-68
2021/12/23 09:34:43;;;;;;;0.50;0.50;;;-0.30;99.90;;;;;;4440792;32;20515;-68
2021/12/23 09:37:09;;;;;;;1.12;1.02;;;-0.20;99.90;;;;;;4450379;32;20077;-68
2021/12/23 09:39:34;;;;;;;1.27;1.23;;;-0.20;99.90;;;;;;4451011;32;20547;-68
2021/12/23 09:42:03;;;;;;;2.05;0.82;;;-0.20;99.90;;;;;;4449928;32;20104;-68
2021/12/23 09:44:30;;;;;;;2.80;1.55;;;-0.20;99.90;;;;;;4443498;32;20109;-68
2021/12/23 09:47:00;;;;;;;2.25;1.75;;;-0.10;99.90;;;;;;4449771;32;20106;-68
2021/12/23 09:49:26;;;;;;;0.60;0.60;;;-0.20;99.90;;;;;;4455658;32;20124;-68
2021/12/23 09:51:54;;;;;;;0.60;0.60;;;-0.10;99.90;;;;;;4453968;32;20073;-68
2021/12/23 09:54:20;;;;;;;2.92;1.62;;;0.00;99.90;;;;;;4442870;32;20513;-68
2021/12/23 09:56:46;;;;;;;0.98;0.98;;;0.10;99.90;;;;;;4429356;32;20077;-68
2021/12/23 09:59:14;;;;;;;1.60;0.73;;;0.20;99.90;;;;;;4429880;32;20069;-68
2021/12/23 10:01:40;;;;;;;0.60;0.60;;;0.20;99.90;;;;;;4439984;32;20179;-68
2021/12/23 10:04:06;;;;;;;1.30;1.20;;;0.20;99.90;;;;;;4443781;32;20081;-68
2021/12/23 10:06:32;;;;;;;0.70;0.70;;;0.10;99.90;;;;;;4438641;32;20514;-68
2021/12/23 10:08:58;;;;;;;0.85;0.68;;;0.10;99.90;;;;;;4442778;32;20122;-67
2021/12/23 10:11:53;;;;;;;0.93;0.93;;;0.00;99.90;;;;;;4448462;32;20087;-68
2021/12/23 10:27:22;;;;;;;1.35;1.12;;;0.20;99.90;;;;;;4434242;32;20086;-67
2021/12/23 10:30:29;;;;;;;1.05;1.05;;;0.20;99.90;;;;;;4431500;32;20074;-67
2021/12/23 10:31:28;;;;;;;0.90;0.90;;;0.20;99.90;;;;;;4446531;32;20119;-67
2021/12/23 10:37:14;;;;;;;0.40;0.40;;;0.30;99.90;;;;;;4447117;32;20081;-67
2021/12/23 10:39:43;;;;;;;0.85;0.82;;;0.30;99.90;;;;;;4441059;32;20089;-68
2021/12/23 10:42:18;;;;;;;19.90;2.42;;;0.40;99.90;;;;;;4449809;32;20056;-67
2021/12/23 10:45:07;;;;;;;1.95;1.48;;;0.40;99.90;;;;;;4448736;32;20163;-68
2021/12/23 10:47:54;;;;;;;0.65;0.65;;;0.40;99.90;;;;;;4446800;32;20057;-68
2021/12/23 10:50:30;;;;;;;0.60;0.60;;;0.30;99.90;;;;;;4448521;32;20113;-68
2021/12/23 10:53:03;;;;;;;0.45;0.45;;;0.30;99.90;;;;;;4448190;32;20053;-68
2021/12/23 10:58:05;;;;;;;0.52;0.52;;;0.40;99.90;;;;;;4435361;32;20117;-64
2021/12/23 10:58:16;;;;;;;2.75;2.12;;;0.50;99.90;;;;;;4457957;32;20072;-63
2021/12/23 11:00:49;;;;;;;0.85;0.80;;;0.50;99.90;;;;;;4444391;32;20157;-64
2021/12/23 11:03:27;;;;;;;2.28;1.60;;;0.60;99.90;;;;;;4444532;32;20060;-64
2021/12/23 11:08:56;;;;;;;1.12;1.02;;;0.70;99.90;;;;;;4445412;32;20457;-64
2021/12/23 11:27:27;;;;;;;0.85;0.85;;;0.70;99.90;;;;;;4446871;32;20128;-63
2021/12/23 11:27:32;;;;;;;0.90;0.85;;;0.70;99.90;;;;;;4429290;32;20547;-65
2021/12/23 11:29:02;;;;;;;1.55;1.40;;;0.70;99.90;;;;;;4445045;32;20088;-65
2021/12/23 11:36:18;;;;;;;0.60;0.60;;;0.80;99.90;;;;;;4449393;32;20481;-63
2021/12/23 11:41:47;;;;;;;0.90;0.90;;;1.10;99.90;;;;;;4442266;32;20115;-65
2021/12/23 11:44:13;;;;;;;0.55;0.55;;;1.10;99.90;;;;;;4450189;32;20138;-64
2021/12/23 11:46:48;;;;;;;0.65;0.65;;;1.20;99.90;;;;;;4451640;32;20069;-64
2021/12/23 11:49:16;;;;;;;0.40;0.40;;;1.20;99.90;;;;;;4435485;32;20078;-65
2021/12/23 11:51:51;;;;;;;0.43;0.43;;;1.20;99.90;;;;;;4437941;32;20064;-65
2021/12/23 11:54:20;;;;;;;0.93;0.93;;;1.20;99.90;;;;;;4444926;32;20583;-65
2021/12/23 11:56:53;;;;;;;0.55;0.52;;;1.20;99.90;;;;;;4432984;32;20057;-64
2021/12/23 11:59:20;;;;;;;1.23;1.12;;;1.30;99.90;;;;;;4447222;32;20057;-64
2021/12/23 12:01:48;;;;;;;0.65;0.65;;;1.30;99.90;;;;;;4453573;32;20571;-65
2021/12/23 12:04:25;;;;;;;1.02;0.95;;;1.40;99.90;;;;;;4444018;32;20485;-64
2021/12/23 12:06:52;;;;;;;0.40;0.40;;;1.50;99.90;;;;;;4433754;32;20077;-64
2021/12/23 12:09:28;;;;;;;0.77;0.77;;;1.50;99.90;;;;;;4441337;32;20065;-64
2021/12/23 12:11:59;;;;;;;0.68;0.68;;;1.50;99.90;;;;;;4453745;32;20061;-64
2021/12/23 12:14:44;;;;;;;0.77;0.77;;;1.50;99.90;;;;;;4459988;32;20065;-64
2021/12/23 12:17:32;;;;;;;7.28;2.67;;;1.60;99.90;;;;;;4457751;32;20235;-64
2021/12/23 12:20:03;;;;;;;0.95;0.93;;;1.70;99.90;;;;;;4450021;32;20064;-66
2021/12/23 12:22:57;;;;;;;1.37;1.25;;;1.60;99.90;;;;;;4449619;32;20060;-64
2021/12/23 12:25:25;;;;;;;0.80;0.80;;;1.70;99.90;;;;;;4443055;32;20064;-64
2021/12/23 12:27:56;;;;;;;2.12;1.17;;;1.70;99.90;;;;;;4454575;32;20088;-64
2021/12/23 12:30:39;;;;;;;0.90;0.90;;;1.70;99.90;;;;;;4443741;32;20068;-65
2021/12/23 12:33:29;;;;;;;0.40;0.40;;;1.70;99.90;;;;;;4437751;32;20513;-65
2021/12/23 12:36:04;;;;;;;1.05;1.05;;;1.80;99.90;;;;;;4435697;32;20077;-63
2021/12/23 12:38:41;;;;;;;0.40;0.40;;;1.70;99.90;;;;;;4443038;32;20081;-65
2021/12/23 12:41:26;;;;;;;0.57;0.57;;;1.70;99.90;;;;;;4436495;32;20085;-64
2021/12/23 12:44:04;;;;;;;5.30;1.05;;;1.60;99.90;;;;;;4445091;32;20060;-65
2021/12/23 12:46:37;;;;;;;0.40;0.40;;;1.60;99.90;;;;;;4441967;32;20509;-64
2021/12/23 12:49:13;;;;;;;0.43;0.43;;;1.70;99.90;;;;;;4443642;32;20073;-64
2021/12/23 12:51:42;;;;;;;2.95;2.00;;;1.60;99.90;;;;;;4439093;32;20074;-65
2021/12/23 12:54:13;;;;;;;1.02;0.95;;;1.50;99.90;;;;;;4443406;32;20081;-65
2021/12/23 12:56:43;;;;;;;;;;;1.50;99.90;;;;;;4434228;32;20068;-64
2021/12/23 12:59:11;;;;;;;0.53;0.53;;;1.60;99.90;;;;;;4449457;32;20364;-65
2021/12/23 13:01:42;;;;;;;0.50;0.50;;;1.60;99.90;;;;;;4451083;32;20057;-64
2021/12/23 13:04:41;;;;;;;5.35;1.45;;;1.60;99.90;;;;;;4439140;32;20103;-65
2021/12/23 13:07:30;;;;;;;1.25;0.98;;;1.60;99.90;;;;;;4429816;32;20135;-63
2021/12/23 13:10:17;;;;;;;0.60;0.60;;;1.70;99.90;;;;;;4428213;32;20065;-64
2021/12/23 13:12:51;;;;;;;0.40;0.40;;;1.60;99.90;;;;;;4443489;32;20061;-64
2021/12/23 13:15:23;;;;;;;0.60;0.60;;;1.60;99.90;;;;;;4448631;32;20258;-64
2021/12/23 13:17:54;;;;;;;0.60;0.60;;;1.70;99.90;;;;;;4426022;32;20090;-64
2021/12/23 13:20:32;;;;;;;0.88;0.88;;;1.70;99.90;;;;;;4442812;32;20065;-65
2021/12/23 13:23:03;;;;;;;0.68;0.68;;;1.60;99.90;;;;;;4434097;32;20073;-65
2021/12/23 13:25:28;;;;;;;;;;;1.60;99.90;;;;;;4442983;32;20105;-64
2021/12/23 13:27:54;;;;;;;0.60;0.60;;;1.60;99.90;;;;;;4444534;32;19960;-65
2021/12/23 13:30:19;;;;;;;6.22;1.33;;;1.60;99.90;;;;;;4436304;32;20097;-64
2021/12/23 13:32:58;;;;;;;0.40;0.40;;;1.60;99.90;;;;;;4429196;32;20139;-64
2021/12/23 13:35:24;;;;;;;0.60;0.60;;;1.70;99.90;;;;;;4432084;32;20054;-64
2021/12/23 13:37:50;;;;;;;1.27;0.98;;;1.70;99.90;;;;;;4444313;32;20093;-64
2021/12/23 13:40:38;;;;;;;1.00;0.95;;;1.70;99.90;;;;;;4431539;32;20112;-64